createdAt,value
2019-04-25T00:00:01.837Z,95.60
2019-04-25T00:02:30.921Z,95.60
2019-04-25T00:04:58.041Z,95.60
2019-04-25T00:07:24.246Z,95.90
2019-04-25T00:09:51.789Z,95.20
2019-04-25T00:12:18.682Z,95.50
2019-04-25T00:14:45.824Z,95.20
2019-04-25T00:17:12.453Z,95.20
2019-04-25T00:19:38.758Z,95.20
2019-04-25T00:22:05.029Z,95.10
2019-04-25T00:24:33.097Z,95.10
2019-04-25T00:26:59.274Z,95.00
2019-04-25T00:29:25.473Z,94.90
2019-04-25T00:31:53.296Z,95.00
2019-04-25T00:34:19.939Z,95.30
2019-04-25T00:36:46.739Z,95.10
2019-04-25T00:39:13.122Z,94.90
2019-04-25T00:41:39.303Z,94.90
2019-04-25T00:44:05.613Z,94.90
2019-04-25T00:46:32.213Z,94.90
2019-04-25T00:48:58.654Z,94.70
2019-04-25T00:51:25.263Z,94.40
2019-04-25T00:53:53.706Z,94.70
2019-04-25T00:56:19.487Z,94.60
2019-04-25T00:58:47.526Z,94.50
2019-04-25T01:01:15.598Z,94.50
2019-04-25T01:03:44.105Z,94.80
2019-04-25T01:06:12.033Z,95.00
2019-04-25T01:08:38.247Z,94.60
2019-04-25T01:11:04.466Z,94.70
2019-04-25T01:13:32.111Z,94.80
2019-04-25T01:15:58.326Z,95.00
2019-04-25T01:18:25.213Z,95.00
2019-04-25T01:20:53.619Z,95.00
2019-04-25T01:23:20.062Z,95.10
2019-04-25T01:25:47.059Z,95.10
2019-04-25T01:28:14.128Z,95.00
2019-04-25T01:30:40.404Z,95.20
2019-04-25T01:33:07.980Z,95.00
2019-04-25T01:35:36.163Z,94.80
2019-04-25T01:38:04.246Z,94.50
2019-04-25T01:40:33.421Z,95.10
2019-04-25T01:43:03.724Z,94.70
2019-04-25T01:45:31.927Z,94.80
2019-04-25T01:47:58.431Z,95.70
2019-04-25T01:50:24.904Z,95.60
2019-04-25T01:52:54.447Z,95.60
2019-04-25T01:55:20.419Z,95.80
2019-04-25T01:57:46.614Z,95.80
2019-04-25T02:00:14.791Z,95.60
2019-04-25T02:02:41.056Z,95.40
2019-04-25T02:05:07.362Z,95.50
2019-04-25T02:07:33.632Z,95.60
2019-04-25T02:09:59.902Z,95.60
2019-04-25T02:12:28.041Z,95.30
2019-04-25T02:14:55.612Z,95.30
2019-04-25T02:17:24.015Z,95.10
2019-04-25T02:19:51.976Z,95.10
2019-04-25T02:22:18.573Z,95.10
2019-04-25T02:24:44.841Z,95.00
2019-04-25T02:27:11.118Z,95.10
2019-04-25T02:29:37.391Z,94.70
2019-04-25T02:32:08.840Z,94.70
2019-04-25T02:34:34.663Z,95.00
2019-04-25T02:37:03.190Z,95.00
2019-04-25T02:39:28.354Z,95.00
2019-04-25T02:41:57.845Z,95.10
2019-04-25T02:44:24.630Z,95.00
2019-04-25T02:46:50.678Z,95.00
2019-04-25T02:49:29.344Z,95.10
2019-04-25T02:51:48.658Z,95.10
2019-04-25T02:54:16.310Z,95.10
2019-04-25T02:56:46.319Z,95.10
2019-04-25T02:59:10.495Z,95.40
2019-04-25T03:01:36.667Z,95.50
2019-04-25T03:04:08.561Z,95.30
2019-04-25T03:06:31.126Z,95.10
2019-04-25T03:08:58.034Z,95.10
2019-04-25T03:11:25.306Z,94.20
2019-04-25T03:13:54.235Z,94.30
2019-04-25T03:16:20.511Z,94.50
2019-04-25T03:18:48.667Z,94.70
2019-04-25T03:21:17.614Z,94.90
2019-04-25T03:23:46.458Z,94.50
2019-04-25T03:26:13.533Z,94.70
2019-04-25T03:28:39.787Z,95.00
2019-04-25T03:31:12.782Z,94.60
2019-04-25T03:33:37.841Z,94.80
2019-04-25T03:36:03.112Z,95.00
2019-04-25T03:38:29.737Z,94.80
2019-04-25T03:40:55.931Z,94.90
2019-04-25T03:43:23.253Z,95.00
2019-04-25T03:45:49.882Z,94.60
2019-04-25T03:48:16.160Z,94.40
2019-04-25T03:50:42.333Z,94.50
2019-04-25T03:53:08.509Z,94.70
2019-04-25T03:55:35.987Z,94.60
2019-04-25T03:58:04.908Z,94.70
2019-04-25T04:00:30.318Z,94.60
2019-04-25T04:02:56.613Z,94.60
2019-04-25T04:05:23.342Z,94.60
2019-04-25T04:07:49.666Z,94.40
2019-04-25T04:10:15.866Z,94.30
2019-04-25T04:12:42.042Z,94.50
2019-04-25T04:15:08.357Z,93.90
2019-04-25T04:17:36.542Z,94.40
2019-04-25T04:20:05.686Z,94.40
2019-04-25T04:22:34.173Z,94.30
2019-04-25T04:25:03.673Z,94.00
2019-04-25T04:27:29.974Z,93.70
2019-04-25T04:29:56.159Z,94.00
2019-04-25T04:32:24.113Z,94.20
2019-04-25T04:34:50.410Z,94.40
2019-04-25T04:37:17.443Z,93.80
2019-04-25T04:39:43.812Z,94.00
2019-04-25T04:42:09.952Z,94.00
2019-04-25T04:44:36.130Z,93.80
2019-04-25T04:47:03.813Z,93.80
2019-04-25T04:49:30.310Z,94.00
2019-04-25T04:51:56.498Z,93.50
2019-04-25T04:54:23.155Z,93.80
2019-04-25T04:56:50.094Z,93.70
2019-04-25T04:59:16.573Z,93.80
2019-04-25T05:01:44.975Z,93.60
2019-04-25T05:04:14.537Z,94.00
2019-04-25T05:06:43.670Z,93.50
2019-04-25T05:09:13.672Z,93.90
2019-04-25T05:11:39.981Z,93.70
2019-04-25T05:14:06.152Z,93.90
2019-04-25T05:16:33.214Z,94.00
2019-04-25T05:18:59.542Z,93.50
2019-04-25T05:21:25.714Z,93.30
2019-04-25T05:23:51.919Z,93.30
2019-04-25T05:26:18.941Z,93.00
2019-04-25T05:28:45.282Z,93.30
2019-04-25T05:31:15.798Z,93.00
2019-04-25T05:33:41.362Z,93.10
2019-04-25T05:36:07.535Z,93.20
2019-04-25T05:38:33.743Z,93.30
2019-04-25T05:41:01.810Z,93.40
2019-04-25T05:43:28.790Z,93.80
2019-04-25T05:45:55.482Z,93.20
2019-04-25T05:48:21.659Z,94.20
2019-04-25T05:50:47.826Z,93.80
2019-04-25T05:53:14.205Z,94.20
2019-04-25T05:55:40.378Z,94.10
2019-04-25T05:58:07.802Z,94.40
2019-04-25T06:00:34.630Z,94.50
2019-04-25T06:03:00.902Z,94.40
2019-04-25T06:05:27.621Z,94.60
2019-04-25T06:07:54.590Z,94.40
2019-04-25T06:10:23.567Z,94.20
2019-04-25T06:12:53.546Z,94.50
2019-04-25T06:15:23.696Z,94.10
2019-04-25T06:17:49.747Z,94.30
2019-04-25T06:20:17.858Z,94.90
2019-04-25T06:22:46.042Z,93.80
2019-04-25T06:25:16.040Z,94.40
2019-04-25T06:27:43.612Z,94.30
2019-04-25T06:30:13.982Z,94.40
2019-04-25T06:32:41.819Z,93.90
2019-04-25T06:35:08.190Z,93.70
2019-04-25T06:37:35.155Z,93.70
2019-04-25T06:40:03.447Z,93.70
2019-04-25T06:42:30.438Z,94.00
2019-04-25T06:44:58.542Z,93.90
2019-04-25T06:47:26.748Z,93.30
2019-04-25T06:49:53.278Z,93.40
2019-04-25T06:52:19.818Z,93.60
2019-04-25T06:54:45.990Z,93.80
2019-04-25T06:57:14.138Z,93.30
2019-04-25T06:59:41.563Z,93.60
2019-04-25T07:02:08.394Z,93.40
2019-04-25T07:04:34.859Z,93.40
2019-04-25T07:07:10.465Z,93.80
2019-04-25T07:09:30.026Z,93.80
2019-04-25T07:11:58.581Z,93.10
2019-04-25T07:14:26.550Z,93.50
2019-04-25T07:16:53.247Z,92.80
2019-04-25T07:19:19.610Z,93.20
2019-04-25T07:21:45.808Z,92.90
2019-04-25T07:24:11.974Z,92.90
2019-04-25T07:26:40.181Z,93.00
2019-04-25T07:29:11.315Z,92.50
2019-04-25T07:31:39.615Z,92.50
2019-04-25T07:34:08.717Z,92.60
2019-04-25T07:36:36.175Z,92.30
2019-04-25T07:39:10.372Z,92.10
2019-04-25T07:41:37.143Z,92.40
2019-04-25T07:44:04.275Z,92.80
2019-04-25T07:46:32.764Z,92.50
2019-04-25T07:48:59.336Z,92.80
2019-04-25T07:51:26.739Z,92.30
2019-04-25T07:53:53.473Z,92.00
2019-04-25T07:56:19.781Z,92.00
2019-04-25T07:58:52.197Z,92.10
2019-04-25T08:01:15.170Z,91.60
2019-04-25T08:03:41.446Z,91.90
2019-04-25T08:06:07.838Z,91.30
2019-04-25T08:08:34.901Z,91.00
2019-04-25T08:11:04.604Z,91.00
2019-04-25T08:13:34.277Z,90.70
2019-04-25T08:16:03.416Z,90.10
2019-04-25T08:18:30.212Z,89.90
2019-04-25T08:20:56.947Z,89.80
2019-04-25T08:23:23.821Z,88.00
2019-04-25T08:25:50.083Z,88.40
2019-04-25T08:28:16.284Z,88.50
2019-04-25T08:30:43.641Z,89.30
2019-04-25T08:33:09.926Z,89.10
2019-04-25T08:35:36.508Z,90.30
2019-04-25T08:38:03.419Z,90.20
2019-04-25T08:40:31.643Z,89.60
2019-04-25T08:42:58.862Z,88.60
2019-04-25T08:45:25.033Z,87.90
2019-04-25T08:47:51.203Z,87.10
2019-04-25T08:50:28.818Z,87.70
2019-04-25T08:52:47.284Z,88.90
2019-04-25T08:55:15.363Z,86.20
2019-04-25T08:57:44.050Z,86.00
2019-04-25T09:00:14.238Z,86.90
2019-04-25T09:02:44.638Z,86.40
2019-04-25T09:05:14.410Z,85.70
2019-04-25T09:07:40.630Z,85.50
2019-04-25T09:10:06.810Z,85.90
2019-04-25T09:12:35.567Z,85.60
2019-04-25T09:15:01.008Z,85.70
2019-04-25T09:17:27.166Z,85.90
2019-04-25T09:19:54.248Z,85.50
2019-04-25T09:22:20.738Z,83.90
2019-04-25T09:24:46.906Z,83.80
2019-04-25T09:27:13.494Z,82.40
2019-04-25T09:29:39.682Z,81.70
2019-04-25T09:32:06.159Z,81.20
2019-04-25T09:34:33.609Z,81.40
2019-04-25T09:37:00.034Z,80.50
2019-04-25T09:39:28.106Z,81.20
2019-04-25T09:41:54.402Z,79.80
2019-04-25T09:44:23.946Z,78.90
2019-04-25T09:47:00.179Z,80.00
2019-04-25T09:49:28.206Z,80.20
2019-04-25T09:51:56.285Z,79.70
2019-04-25T09:54:24.385Z,79.70
2019-04-25T09:56:53.215Z,79.30
2019-04-25T09:59:28.057Z,79.60
2019-04-25T10:01:49.855Z,79.60
2019-04-25T10:04:16.409Z,80.20
2019-04-25T10:06:44.592Z,78.80
2019-04-25T10:09:10.778Z,79.50
2019-04-25T10:11:38.230Z,77.90
2019-04-25T10:14:08.353Z,77.30
2019-04-25T10:16:35.057Z,77.50
2019-04-25T10:19:03.404Z,76.20
2019-04-25T10:21:29.958Z,77.50
2019-04-25T10:23:56.161Z,77.40
2019-04-25T10:26:22.634Z,75.20
2019-04-25T10:28:49.773Z,75.50
2019-04-25T10:31:16.101Z,75.00
2019-04-25T10:33:45.263Z,72.40
2019-04-25T10:36:10.446Z,71.00
2019-04-25T10:38:36.707Z,71.90
2019-04-25T10:41:04.258Z,71.90
2019-04-25T10:43:30.514Z,73.70
2019-04-25T10:45:56.722Z,75.30
2019-04-25T10:48:24.037Z,76.10
2019-04-25T10:50:50.378Z,77.00
2019-04-25T10:53:16.580Z,76.10
2019-04-25T10:55:43.548Z,76.70
2019-04-25T10:58:09.721Z,77.90
2019-04-25T11:00:37.847Z,77.80
2019-04-25T11:03:06.010Z,77.50
2019-04-25T11:05:34.286Z,77.50
2019-04-25T11:08:00.767Z,76.50
2019-04-25T11:10:26.942Z,76.90
2019-04-25T11:12:53.962Z,77.10
2019-04-25T11:15:21.426Z,75.90
2019-04-25T11:17:47.977Z,75.80
2019-04-25T11:20:17.986Z,76.50
2019-04-25T11:22:45.083Z,76.70
2019-04-25T11:25:13.361Z,77.20
2019-04-25T11:27:40.051Z,77.30
2019-04-25T11:30:10.810Z,77.20
2019-04-25T11:32:36.158Z,77.70
2019-04-25T11:35:05.132Z,77.40
2019-04-25T11:37:32.034Z,78.30
2019-04-25T11:40:00.114Z,76.90
2019-04-25T11:42:26.382Z,75.70
2019-04-25T11:44:54.137Z,76.50
2019-04-25T11:47:20.859Z,75.10
2019-04-25T11:49:49.874Z,76.30
2019-04-25T11:52:26.945Z,76.00
2019-04-25T11:54:46.743Z,76.70
2019-04-25T11:57:17.679Z,76.20
2019-04-25T11:59:45.259Z,76.10
2019-04-25T12:02:13.345Z,76.10
2019-04-25T12:04:39.642Z,76.30
2019-04-25T12:07:07.131Z,75.20
2019-04-25T12:09:34.258Z,75.80
2019-04-25T12:12:00.426Z,73.60
2019-04-25T12:14:26.620Z,73.50
2019-04-25T12:16:53.204Z,73.80
2019-04-25T12:19:32.525Z,73.50
2019-04-25T12:21:48.880Z,74.20
2019-04-25T12:24:15.049Z,80.50
2019-04-25T12:26:41.318Z,82.60
2019-04-25T12:29:07.508Z,83.40
2019-04-25T12:31:34.177Z,83.20
2019-04-25T12:34:00.558Z,80.00
2019-04-25T12:36:26.852Z,79.10
2019-04-25T12:38:54.554Z,82.00
2019-04-25T12:41:21.010Z,80.90
2019-04-25T12:43:49.918Z,80.60
2019-04-25T12:46:18.006Z,80.00
2019-04-25T12:48:45.890Z,80.70
2019-04-25T12:51:13.490Z,83.40
2019-04-25T12:53:39.845Z,84.40
2019-04-25T12:56:06.022Z,83.00
2019-04-25T12:58:33.437Z,83.40
2019-04-25T13:01:00.117Z,80.10
2019-04-25T13:03:26.574Z,80.70
2019-04-25T13:05:52.778Z,81.60
2019-04-25T13:08:19.696Z,81.90
2019-04-25T13:10:45.975Z,83.90
2019-04-25T13:13:14.917Z,87.30
2019-04-25T13:15:40.255Z,85.10
2019-04-25T13:18:06.424Z,89.90
2019-04-25T13:20:33.406Z,90.80
2019-04-25T13:23:00.512Z,91.50
2019-04-25T13:25:26.956Z,91.50
2019-04-25T13:27:55.142Z,91.60
2019-04-25T13:30:24.137Z,91.30
2019-04-25T13:32:52.304Z,90.60
2019-04-25T13:35:20.409Z,89.30
2019-04-25T13:37:46.878Z,88.20
2019-04-25T13:40:15.916Z,86.30
2019-04-25T13:42:41.338Z,86.90
2019-04-25T13:45:07.711Z,84.70
2019-04-25T13:47:34.184Z,84.50
2019-04-25T13:50:00.381Z,83.20
2019-04-25T13:52:26.906Z,79.60
2019-04-25T13:54:53.806Z,80.20
2019-04-25T13:57:20.741Z,79.30
2019-04-25T13:59:47.864Z,80.60
2019-04-25T14:02:14.334Z,82.10
2019-04-25T14:04:40.542Z,80.00
2019-04-25T14:07:07.110Z,80.90
2019-04-25T14:09:34.709Z,80.10
2019-04-25T14:12:01.158Z,80.60
2019-04-25T14:14:27.330Z,79.80
2019-04-25T14:16:55.410Z,78.90
2019-04-25T14:19:25.197Z,78.70
2019-04-25T14:21:54.256Z,78.70
2019-04-25T14:24:22.890Z,77.20
2019-04-25T14:26:48.641Z,75.20
2019-04-25T14:29:14.780Z,74.80
2019-04-25T14:31:45.760Z,74.90
2019-04-25T14:34:09.073Z,75.90
2019-04-25T14:36:35.244Z,76.30
2019-04-25T14:39:01.513Z,72.50
2019-04-25T14:41:28.091Z,73.20
2019-04-25T14:43:54.416Z,73.30
2019-04-25T14:46:20.674Z,71.90
2019-04-25T14:48:46.953Z,74.90
2019-04-25T14:51:13.118Z,73.20
2019-04-25T14:53:39.386Z,73.80
2019-04-25T14:56:07.569Z,73.80
2019-04-25T14:58:35.649Z,74.20
2019-04-25T15:01:02.022Z,75.60
2019-04-25T15:03:28.231Z,75.50
2019-04-25T15:05:54.397Z,74.30
2019-04-25T15:08:20.637Z,74.10
2019-04-25T15:10:48.532Z,74.20
2019-04-25T15:13:14.934Z,74.20
2019-04-25T15:15:41.110Z,74.70
2019-04-25T15:18:07.410Z,75.80
2019-04-25T15:20:34.363Z,74.90
2019-04-25T15:23:00.661Z,76.30
2019-04-25T15:25:27.460Z,76.20
2019-04-25T15:27:53.733Z,75.80
2019-04-25T15:30:21.809Z,76.40
2019-04-25T15:32:48.817Z,76.30
2019-04-25T15:35:16.893Z,77.10
2019-04-25T15:37:45.082Z,76.60
2019-04-25T15:40:13.252Z,74.10
2019-04-25T15:42:41.906Z,70.40
2019-04-25T15:45:08.618Z,66.30
2019-04-25T15:47:35.014Z,66.10
2019-04-25T15:50:01.393Z,65.90
2019-04-25T15:52:27.667Z,68.90
2019-04-25T15:55:06.048Z,70.60
2019-04-25T15:57:21.859Z,71.60
2019-04-25T15:59:48.042Z,70.90
2019-04-25T16:02:14.354Z,69.20
2019-04-25T16:04:40.517Z,69.30
2019-04-25T16:07:07.195Z,69.50
2019-04-25T16:09:34.569Z,70.20
2019-04-25T16:12:01.267Z,70.70
2019-04-25T16:14:28.312Z,71.70
2019-04-25T16:16:54.726Z,70.60
2019-04-25T16:19:20.896Z,71.90
2019-04-25T16:21:47.062Z,71.90
2019-04-25T16:24:13.254Z,71.00
2019-04-25T16:26:39.422Z,71.20
2019-04-25T16:29:05.588Z,70.60
2019-04-25T16:31:32.308Z,70.50
2019-04-25T16:33:58.649Z,70.80
2019-04-25T16:36:24.820Z,70.70
2019-04-25T16:38:51.026Z,69.50
2019-04-25T16:41:18.110Z,69.20
2019-04-25T16:43:46.190Z,70.60
2019-04-25T16:46:13.786Z,69.50
2019-04-25T16:48:39.963Z,70.80
2019-04-25T16:51:06.234Z,65.10
2019-04-25T16:53:32.670Z,61.30
2019-04-25T16:55:58.784Z,60.80
2019-04-25T16:58:25.066Z,63.20
2019-04-25T17:00:53.198Z,64.20
2019-04-25T17:03:20.979Z,63.10
2019-04-25T17:05:47.151Z,63.90
2019-04-25T17:08:13.870Z,63.10
2019-04-25T17:10:40.038Z,59.60
2019-04-25T17:13:06.745Z,58.40
2019-04-25T17:15:34.864Z,57.40
2019-04-25T17:18:02.937Z,59.00
2019-04-25T17:20:31.011Z,61.10
2019-04-25T17:22:58.314Z,62.70
2019-04-25T17:25:24.585Z,64.40
2019-04-25T17:27:50.762Z,67.50
2019-04-25T17:30:17.865Z,70.10
2019-04-25T17:32:53.366Z,71.50
2019-04-25T17:35:13.926Z,73.60
2019-04-25T17:37:43.052Z,74.90
2019-04-25T17:40:11.207Z,74.20
2019-04-25T17:42:37.499Z,74.60
2019-04-25T17:45:07.510Z,75.50
2019-04-25T17:47:34.495Z,77.00
2019-04-25T17:50:00.858Z,77.40
2019-04-25T17:52:27.150Z,77.40
2019-04-25T17:54:53.318Z,77.50
2019-04-25T17:57:19.493Z,78.40
2019-04-25T17:59:45.686Z,78.70
2019-04-25T18:02:11.987Z,78.90
2019-04-25T18:04:38.318Z,79.20
2019-04-25T18:07:05.242Z,79.50
2019-04-25T18:09:31.418Z,80.40
2019-04-25T18:11:57.685Z,81.50
2019-04-25T18:14:24.310Z,82.00
2019-04-25T18:16:50.585Z,82.80
2019-04-25T18:19:18.660Z,83.20
2019-04-25T18:21:45.040Z,84.20
2019-04-25T18:24:13.214Z,85.70
2019-04-25T18:26:41.370Z,85.40
2019-04-25T18:29:09.578Z,84.80
2019-04-25T18:31:35.858Z,85.20
2019-04-25T18:34:04.028Z,84.50
2019-04-25T18:36:32.218Z,85.20
2019-04-25T18:39:00.304Z,85.50
2019-04-25T18:41:28.375Z,88.10
2019-04-25T18:43:56.480Z,89.10
2019-04-25T18:46:24.551Z,88.50
2019-04-25T18:48:51.443Z,89.90
2019-04-25T18:51:17.826Z,90.20
2019-04-25T18:53:45.906Z,90.00
2019-04-25T18:56:13.997Z,90.90
2019-04-25T18:58:42.178Z,91.00
2019-04-25T19:01:10.254Z,90.20
2019-04-25T19:03:38.141Z,90.50
2019-04-25T19:06:06.530Z,90.50
2019-04-25T19:08:32.701Z,90.80
2019-04-25T19:10:58.907Z,90.40
2019-04-25T19:13:25.163Z,90.40
2019-04-25T19:15:51.754Z,90.20
2019-04-25T19:18:17.926Z,91.40
2019-04-25T19:20:44.425Z,91.80
2019-04-25T19:23:10.606Z,91.60
2019-04-25T19:25:36.785Z,90.80
2019-04-25T19:28:02.990Z,91.00
2019-04-25T19:30:29.265Z,90.90
2019-04-25T19:32:55.446Z,90.60
2019-04-25T19:35:21.726Z,90.80
2019-04-25T19:37:48.564Z,91.20
2019-04-25T19:40:16.684Z,90.70
2019-04-25T19:42:44.890Z,91.00
2019-04-25T19:45:11.074Z,91.70
2019-04-25T19:47:37.243Z,90.80
2019-04-25T19:50:04.425Z,90.60
2019-04-25T19:52:30.696Z,89.90
2019-04-25T19:54:56.855Z,89.70
2019-04-25T19:57:23.054Z,89.90
2019-04-25T19:59:49.234Z,90.00
2019-04-25T20:02:17.314Z,90.70
2019-04-25T20:04:45.429Z,90.80
2019-04-25T20:07:13.511Z,91.10
2019-04-25T20:09:42.336Z,90.90
2019-04-25T20:12:09.787Z,91.50
2019-04-25T20:14:35.959Z,91.50
2019-04-25T20:17:03.463Z,91.20
2019-04-25T20:19:29.668Z,91.40
2019-04-25T20:21:55.830Z,91.90
2019-04-25T20:24:22.003Z,92.00
2019-04-25T20:26:48.335Z,92.80
2019-04-25T20:29:14.563Z,92.70
2019-04-25T20:31:40.730Z,92.80
2019-04-25T20:34:06.934Z,92.90
2019-04-25T20:36:33.106Z,93.40
2019-04-25T20:38:59.382Z,93.50
2019-04-25T20:41:25.586Z,94.00
2019-04-25T20:43:52.789Z,93.60
2019-04-25T20:46:19.145Z,93.60
2019-04-25T20:48:45.782Z,93.80
2019-04-25T20:51:13.098Z,93.70
2019-04-25T20:53:39.273Z,93.90
2019-04-25T20:56:05.654Z,94.10
2019-04-25T20:58:31.926Z,94.30
2019-04-25T21:01:00.014Z,94.50
2019-04-25T21:03:26.220Z,93.90
2019-04-25T21:05:55.077Z,94.40
2019-04-25T21:08:21.274Z,94.80
2019-04-25T21:10:47.562Z,94.80
2019-04-25T21:13:15.638Z,94.70
2019-04-25T21:15:43.722Z,94.70
2019-04-25T21:18:12.355Z,94.50
2019-04-25T21:20:38.535Z,94.60
2019-04-25T21:23:04.810Z,95.00
2019-04-25T21:25:31.521Z,94.90
2019-04-25T21:27:58.624Z,94.80
2019-04-25T21:30:24.870Z,94.80
2019-04-25T21:32:53.382Z,94.80
2019-04-25T21:35:20.543Z,94.70
2019-04-25T21:37:46.711Z,94.80
2019-04-25T21:40:14.998Z,94.80
2019-04-25T21:42:43.402Z,94.60
2019-04-25T21:45:09.966Z,94.70
2019-04-25T21:47:36.158Z,94.50
2019-04-25T21:50:05.029Z,94.40
2019-04-25T21:52:31.410Z,94.30
2019-04-25T21:54:57.912Z,94.80
2019-04-25T21:57:24.386Z,94.40
2019-04-25T22:00:00.190Z,94.70
2019-04-25T22:02:19.683Z,94.20
2019-04-25T22:04:46.257Z,94.20
2019-04-25T22:07:13.326Z,94.10
2019-04-25T22:09:39.926Z,94.10
2019-04-25T22:12:08.014Z,94.10
2019-04-25T22:14:34.166Z,93.90
2019-04-25T22:17:00.366Z,93.90
2019-04-25T22:19:27.486Z,93.50
2019-04-25T22:21:53.959Z,93.70
2019-04-25T22:24:20.546Z,93.50
2019-04-25T22:26:48.722Z,93.30
2019-04-25T22:29:15.089Z,93.40
2019-04-25T22:31:43.531Z,93.00
2019-04-25T22:34:11.602Z,93.30
2019-04-25T22:36:38.169Z,93.50
2019-04-25T22:39:08.691Z,93.20
2019-04-25T22:41:35.754Z,93.60
2019-04-25T22:44:02.432Z,93.20
2019-04-25T22:46:29.333Z,93.30
2019-04-25T22:48:56.029Z,93.10
2019-04-25T22:51:22.200Z,93.20
2019-04-25T22:53:48.899Z,93.20
2019-04-25T22:56:15.078Z,93.30
2019-04-25T22:58:41.314Z,93.50
2019-04-25T23:01:09.804Z,93.60
2019-04-25T23:03:37.876Z,93.60
2019-04-25T23:06:04.132Z,93.70
2019-04-25T23:08:30.719Z,93.70
2019-04-25T23:10:56.881Z,93.90
2019-04-25T23:13:23.140Z,94.00
2019-04-25T23:15:49.521Z,93.80
2019-04-25T23:18:16.192Z,93.90
2019-04-25T23:20:42.624Z,94.00
2019-04-25T23:23:09.685Z,94.10
2019-04-25T23:25:37.942Z,94.00
2019-04-25T23:28:06.401Z,94.00
2019-04-25T23:30:35.149Z,94.30
2019-04-25T23:33:01.332Z,94.30
2019-04-25T23:35:30.126Z,94.20
2019-04-25T23:37:55.560Z,94.20
2019-04-25T23:40:21.716Z,94.30
2019-04-25T23:42:48.192Z,94.20
2019-04-25T23:45:14.573Z,94.30
2019-04-25T23:47:40.735Z,94.30
2019-04-25T23:50:08.564Z,94.40
2019-04-25T23:52:34.995Z,94.40
2019-04-25T23:55:01.167Z,94.90
2019-04-25T23:57:27.333Z,94.70
2019-04-25T23:59:53.511Z,94.90
